Coastal Carolina Regional Airport
KEWN : now visible

Airfield :











YOU CAN JOIN US ON...

 
LOGIN :

Register | Disclaimer

   EN    FR    IT 

 









Legend :    VFR   Marginal VFR   IFR   Intensive IFR   Very Intensive IFR
Visi :
Ceiling :
>= 8 km
>= 3000ft
5 to 8 km
1000 to 3000 ft
1500m to 5 km
500 to 1000 ft
800 to 1500m
200 to 500 ft
< 800m
< 200 ft
Symbols :   Thunderstorms  Fog  Heavy snow  Heavy precipitations  Wind > 20 kt






- Airport Elevation : 18 ft
- IATA code : EWN


KEWN - Coastal Carolina Regional

CURRENT METAR :
  • 251954Z 02007KT 6SM BR OVC006 19/19 A2999 RMK AO2 SLP154 T01940189

EXPIRED METARs :
  • 251854Z 01007KT 10SM BKN009 OVC014 21/19 A2997 RMK AO2 RAE13 CIG 006V013 SLP149 P0000 T02060194
  • 251754Z 06008KT 10SM -RA BKN005 OVC044 21/20 A2998 RMK AO2 RAB41 CIG 005V009 SLP152 P0000 60141 T02110200 10211 20189 58016

TAF KEWN
Valid from the 25 at 18:00 until the 26 at 18:00 UTC


251721Z 2518/2618 06007KT 6SM SHRA OVC006
FM260300 01006KT 3SM -DZ BR BKN003
FM261400 34006KT 6SM BR BKN007
KZDC FIR / North America



MET'MAP, your aeronautical weather chart ! - Copyright ORBIFLY December 2007 - Disclaimer

ORBIFLY MET'MAP TEAM :

Programming & Development : Alexandra Zaïnal
Concept & original design : Baudouin d'Aumeries
Assistance for programming : Marc-Olivier Méhu
Technical & hardware support : Manuel Goepfert

Contact : metmap@orbifly.com




SOURCES & CREDITS :

   NOAA       Earth
Advisory